Time;durP1;ratioP1;P1;durP2;ratioP2;P2;SDS_P1;SDS_P2;PMS_P1;PMS_P2;Temp;Humidity;BMP_temperature;BMP_pressure;BME280_temperature;BME280_humidity;BME280_pressure;Samples;Min_cycle;Max_cycle;Signal;HPM_P1;HPM_P2
2022/07/23 00:02:17;;;;;;;5.00;4.30;;;16.90;99.90;;;;;;5035444;28;20189;-41
2022/07/23 00:04:42;;;;;;;5.87;4.43;;;16.90;99.90;;;;;;5035449;28;20192;-40
2022/07/23 00:07:08;;;;;;;4.87;4.37;;;16.90;99.90;;;;;;5035291;28;20642;-39
2022/07/23 00:09:33;;;;;;;5.73;4.40;;;16.90;99.90;;;;;;5035306;28;20197;-40
2022/07/23 00:11:59;;;;;;;5.57;4.23;;;16.90;99.90;;;;;;5035491;28;20184;-40
2022/07/23 00:14:25;;;;;;;8.93;4.57;;;16.90;99.90;;;;;;5035241;28;20181;-41
2022/07/23 00:16:50;;;;;;;7.33;4.60;;;16.90;99.90;;;;;;5035172;28;20177;-41
2022/07/23 00:19:16;;;;;;;4.47;4.07;;;16.80;99.90;;;;;;5035195;28;20641;-44
2022/07/23 00:21:41;;;;;;;5.50;5.00;;;16.90;99.90;;;;;;5035003;28;20181;-41
2022/07/23 00:24:07;;;;;;;6.53;4.33;;;16.80;99.90;;;;;;5035388;28;20181;-43
2022/07/23 00:26:33;;;;;;;5.20;4.70;;;16.90;99.90;;;;;;5034118;28;20208;-44
2022/07/23 00:28:58;;;;;;;4.60;4.10;;;16.90;99.90;;;;;;5035254;28;20185;-41
2022/07/23 00:31:24;;;;;;;7.03;4.10;;;16.80;99.90;;;;;;5034976;28;20201;-42
2022/07/23 00:33:50;;;;;;;5.73;4.07;;;16.90;99.90;;;;;;5035162;28;20247;-42
2022/07/23 00:36:15;;;;;;;5.03;4.10;;;16.80;99.90;;;;;;5035187;28;20209;-41
2022/07/23 00:38:41;;;;;;;7.23;4.67;;;16.80;99.90;;;;;;5035027;28;20181;-41
2022/07/23 00:41:06;;;;;;;6.83;4.17;;;16.90;99.90;;;;;;5034982;28;20638;-46
2022/07/23 00:43:32;;;;;;;5.70;4.20;;;16.80;99.90;;;;;;5035107;28;20263;-45
2022/07/23 00:45:58;;;;;;;5.13;4.40;;;16.80;99.90;;;;;;5035672;28;20215;-43
2022/07/23 00:48:23;;;;;;;5.33;4.03;;;16.80;99.90;;;;;;5035731;28;20173;-45
2022/07/23 00:50:49;;;;;;;8.37;4.07;;;16.80;99.90;;;;;;5035377;28;20565;-47
2022/07/23 00:53:15;;;;;;;9.47;4.17;;;16.80;99.90;;;;;;5035531;28;20264;-44
2022/07/23 00:55:41;;;;;;;5.37;3.60;;;16.70;99.90;;;;;;5035011;28;20204;-43
2022/07/23 00:58:08;;;;;;;5.47;3.33;;;16.70;99.90;;;;;;5033733;28;20209;-44
2022/07/23 01:00:33;;;;;;;3.77;3.40;;;16.70;99.90;;;;;;5035183;28;20254;-43
2022/07/23 01:02:59;;;;;;;5.23;3.53;;;16.60;99.90;;;;;;5035043;28;20252;-43
2022/07/23 01:05:25;;;;;;;5.40;3.67;;;16.60;99.90;;;;;;5034682;28;20629;-43
2022/07/23 01:07:52;;;;;;;4.57;3.53;;;16.60;99.90;;;;;;5034675;28;20213;-45
2022/07/23 01:10:33;;;;;;;5.20;3.77;;;16.50;99.90;;;;;;5035062;28;20200;-44
2022/07/23 01:12:58;;;;;;;4.27;3.40;;;16.50;99.90;;;;;;5035167;28;20180;-43
2022/07/23 01:15:24;;;;;;;3.97;3.30;;;16.40;99.90;;;;;;5035044;28;20640;-42
2022/07/23 01:17:51;;;;;;;4.33;2.83;;;16.40;99.90;;;;;;5035278;28;20257;-44
2022/07/23 01:20:16;;;;;;;3.50;3.20;;;16.40;99.90;;;;;;5034541;28;20207;-44
2022/07/23 01:22:43;;;;;;;3.90;3.10;;;16.30;99.90;;;;;;5034804;28;20280;-43
2022/07/23 01:25:08;;;;;;;5.83;3.90;;;16.30;99.90;;;;;;5034676;28;20189;-46
2022/07/23 01:27:34;;;;;;;4.53;3.67;;;16.30;99.90;;;;;;5034851;28;20212;-45
2022/07/23 01:30:00;;;;;;;4.67;3.40;;;16.20;99.90;;;;;;5034547;28;20201;-44
2022/07/23 01:32:26;;;;;;;6.67;3.60;;;16.20;99.90;;;;;;5034558;28;20181;-42
2022/07/23 01:34:52;;;;;;;5.13;4.07;;;16.10;99.90;;;;;;5034240;28;20260;-45
2022/07/23 01:37:17;;;;;;;6.47;4.30;;;16.10;99.90;;;;;;5034185;28;20583;-44
2022/07/23 01:39:43;;;;;;;4.67;4.27;;;16.10;99.90;;;;;;5034055;28;20207;-38
2022/07/23 01:42:09;;;;;;;5.33;4.23;;;16.00;99.90;;;;;;5032426;28;20191;-40
2022/07/23 01:44:34;;;;;;;4.00;3.60;;;15.90;99.90;;;;;;5033707;28;20177;-38
2022/07/23 01:47:00;;;;;;;4.80;3.67;;;15.90;99.90;;;;;;5033569;28;20205;-39
2022/07/23 01:49:25;;;;;;;4.60;4.17;;;15.90;99.90;;;;;;5032311;28;20192;-40
2022/07/23 01:52:00;;;;;;;6.93;3.83;;;15.90;99.90;;;;;;5033625;28;20184;-38
2022/07/23 01:54:30;;;;;;;4.40;3.87;;;15.80;99.90;;;;;;5034048;28;20165;-38
2022/07/23 01:56:56;;;;;;;5.73;4.47;;;15.80;99.90;;;;;;5034159;28;20185;-41
2022/07/23 01:59:22;;;;;;;7.43;4.50;;;15.70;99.90;;;;;;5033376;28;20184;-41
2022/07/23 02:01:50;;;;;;;8.80;4.83;;;15.70;99.90;;;;;;5033721;28;20191;-39
2022/07/23 02:04:22;;;;;;;8.57;5.10;;;15.70;99.90;;;;;;5033652;28;20230;-41
2022/07/23 02:06:48;;;;;;;7.67;4.57;;;15.70;99.90;;;;;;5033704;28;20212;-41
2022/07/23 02:09:15;;;;;;;6.87;4.43;;;15.60;99.90;;;;;;5033682;28;20191;-38
2022/07/23 02:11:41;;;;;;;4.20;3.80;;;15.60;99.90;;;;;;5033818;28;20235;-42
2022/07/23 02:14:06;;;;;;;7.40;4.17;;;15.50;99.90;;;;;;5033813;28;20630;-40
2022/07/23 02:16:32;;;;;;;8.20;3.73;;;15.50;99.90;;;;;;5033398;28;20268;-39
2022/07/23 02:18:58;;;;;;;6.10;3.60;;;15.50;99.90;;;;;;5033349;28;20212;-41
2022/07/23 02:21:23;;;;;;;3.40;2.73;;;15.40;99.90;;;;;;5033328;28;20197;-40
2022/07/23 02:23:49;;;;;;;6.07;2.70;;;15.40;99.90;;;;;;5032442;28;20205;-41
2022/07/23 02:26:15;;;;;;;3.00;2.80;;;15.40;99.90;;;;;;5032371;28;20205;-40
2022/07/23 02:28:40;;;;;;;3.77;3.10;;;15.30;99.90;;;;;;5032317;28;20177;-40
2022/07/23 02:31:06;;;;;;;5.60;3.47;;;15.40;99.90;;;;;;5032440;28;20193;-40
2022/07/23 02:33:33;;;;;;;3.17;2.87;;;15.20;99.90;;;;;;5032638;28;20644;-39
2022/07/23 02:35:58;;;;;;;2.77;2.57;;;15.30;99.90;;;;;;5033045;28;20188;-41
2022/07/23 02:38:24;;;;;;;3.77;2.60;;;15.20;99.90;;;;;;5033106;28;20172;-40
2022/07/23 02:40:49;;;;;;;3.43;2.50;;;15.20;99.90;;;;;;5032349;28;20192;-39
2022/07/23 02:43:15;;;;;;;2.50;2.30;;;15.20;99.90;;;;;;5032606;28;20177;-37
2022/07/23 02:45:41;;;;;;;4.77;3.00;;;15.10;99.90;;;;;;5032462;28;20256;-38
2022/07/23 02:48:06;;;;;;;4.37;2.87;;;15.10;99.90;;;;;;5033085;28;20621;-39
2022/07/23 02:50:32;;;;;;;2.60;2.40;;;15.00;99.90;;;;;;5034768;28;20235;-38
2022/07/23 02:52:58;;;;;;;2.33;2.10;;;15.00;99.90;;;;;;5035705;28;20231;-37
2022/07/23 02:55:23;;;;;;;2.40;2.20;;;14.90;99.90;;;;;;5035571;28;20181;-38
2022/07/23 02:57:49;;;;;;;2.70;2.50;;;14.90;99.90;;;;;;5035788;28;20181;-39
2022/07/23 03:00:15;;;;;;;3.20;2.90;;;14.80;99.90;;;;;;5035464;28;20200;-39
2022/07/23 03:02:40;;;;;;;3.43;3.13;;;14.80;99.90;;;;;;5035503;28;20645;-39
2022/07/23 03:05:06;;;;;;;3.70;3.37;;;14.70;99.90;;;;;;5035542;28;20181;-40
2022/07/23 03:07:32;;;;;;;3.50;3.20;;;14.70;99.90;;;;;;5035428;28;20691;-40
2022/07/23 03:09:57;;;;;;;3.13;2.83;;;14.60;99.90;;;;;;5035508;28;20189;-39
2022/07/23 03:12:23;;;;;;;3.60;3.30;;;14.60;99.90;;;;;;5035541;28;20231;-37
2022/07/23 03:14:48;;;;;;;3.80;3.23;;;14.60;99.90;;;;;;5035150;28;20169;-39
2022/07/23 03:17:14;;;;;;;6.67;3.50;;;14.60;99.90;;;;;;5035399;28;20240;-38
2022/07/23 03:19:39;;;;;;;4.67;3.60;;;14.50;99.90;;;;;;5035017;28;20208;-38
2022/07/23 03:22:07;;;;;;;3.30;2.70;;;14.50;99.90;;;;;;4996763;28;1071115;-39
2022/07/23 03:27:17;;;;;;;2.20;2.00;;;14.50;99.90;;;;;;5036213;28;20199;-39
2022/07/23 03:29:42;;;;;;;3.10;1.50;;;14.40;99.90;;;;;;5036013;28;20205;-38
2022/07/23 03:32:08;;;;;;;3.73;1.77;;;14.40;99.90;;;;;;5036069;28;20180;-37
2022/07/23 03:34:34;;;;;;;1.63;1.53;;;14.30;99.90;;;;;;5036294;28;20177;-38
2022/07/23 03:37:00;;;;;;;6.67;2.00;;;14.30;99.90;;;;;;5034830;28;20648;-36
2022/07/23 03:39:25;;;;;;;3.97;2.60;;;14.30;99.90;;;;;;5035952;28;20199;-38
2022/07/23 03:41:51;;;;;;;2.83;1.93;;;14.20;99.90;;;;;;5036712;28;20184;-38
2022/07/23 03:44:16;;;;;;;3.17;2.60;;;14.30;99.90;;;;;;5036353;28;20547;-37
2022/07/23 03:46:42;;;;;;;3.07;2.00;;;14.30;99.90;;;;;;5035797;28;20208;-37
2022/07/23 03:49:07;;;;;;;2.27;2.07;;;14.20;99.90;;;;;;5036270;28;20180;-37
2022/07/23 03:51:33;;;;;;;4.13;1.90;;;14.10;99.90;;;;;;5035793;28;20260;-38
2022/07/23 03:53:58;;;;;;;2.43;1.67;;;14.10;99.90;;;;;;5034385;28;20667;-38
2022/07/23 03:56:24;;;;;;;3.17;1.53;;;14.10;99.90;;;;;;5035995;28;20183;-37
2022/07/23 03:58:50;;;;;;;3.43;1.63;;;14.10;99.90;;;;;;5035603;28;20181;-41
2022/07/23 04:01:15;;;;;;;4.03;1.70;;;14.10;99.90;;;;;;5035532;28;20208;-39
2022/07/23 04:03:41;;;;;;;2.60;2.27;;;14.00;99.90;;;;;;5035597;28;20180;-37
2022/07/23 04:06:07;;;;;;;2.30;2.07;;;14.00;99.90;;;;;;5035427;28;20216;-38
2022/07/23 04:08:32;;;;;;;2.10;1.90;;;14.00;99.90;;;;;;5035853;28;20335;-37
2022/07/23 04:10:58;;;;;;;5.20;2.27;;;14.00;99.90;;;;;;5034270;28;20197;-37
2022/07/23 04:13:24;;;;;;;4.60;2.20;;;14.00;99.90;;;;;;5035737;28;20211;-40
2022/07/23 04:15:50;;;;;;;4.53;2.00;;;14.00;99.90;;;;;;5036224;28;20215;-41
2022/07/23 04:18:21;;;;;;;4.27;2.00;;;14.00;99.90;;;;;;5036781;28;20184;-41
2022/07/23 04:20:46;;;;;;;2.37;1.60;;;14.00;99.90;;;;;;5038194;28;20197;-41
2022/07/23 04:23:12;;;;;;;2.47;1.47;;;14.00;99.90;;;;;;5036235;28;20224;-41
2022/07/23 04:25:38;;;;;;;2.40;1.30;;;14.00;99.90;;;;;;5033973;28;20208;-43
2022/07/23 04:28:04;;;;;;;2.80;1.40;;;14.00;99.90;;;;;;5035885;28;20574;-41
2022/07/23 04:30:29;;;;;;;3.63;1.50;;;14.00;99.90;;;;;;5035156;28;20240;-40
2022/07/23 04:32:55;;;;;;;1.50;1.40;;;14.00;99.90;;;;;;5036613;28;20226;-41
2022/07/23 04:35:20;;;;;;;1.93;1.40;;;14.00;99.90;;;;;;5037559;28;20213;-40
2022/07/23 04:37:46;;;;;;;3.97;1.80;;;13.90;99.90;;;;;;5035754;28;20241;-40
2022/07/23 04:40:12;;;;;;;2.67;2.13;;;13.90;99.90;;;;;;5034711;28;20685;-43
2022/07/23 04:42:38;;;;;;;7.10;1.93;;;13.90;99.90;;;;;;5034745;28;20298;-43
2022/07/23 04:45:04;;;;;;;3.87;2.37;;;14.00;99.90;;;;;;5033534;28;20263;-42
2022/07/23 04:47:30;;;;;;;2.60;2.40;;;14.00;99.90;;;;;;5035006;28;20201;-43
2022/07/23 04:49:56;;;;;;;3.87;2.70;;;14.00;99.90;;;;;;5034545;28;20661;-42
2022/07/23 04:52:22;;;;;;;2.73;2.50;;;14.10;99.90;;;;;;5035367;28;20372;-43
2022/07/23 04:54:48;;;;;;;4.63;2.27;;;14.10;99.90;;;;;;5035289;28;20278;-43
2022/07/23 04:57:13;;;;;;;3.47;2.10;;;14.10;99.90;;;;;;5034553;28;20189;-41
2022/07/23 04:59:39;;;;;;;4.37;2.57;;;14.20;99.90;;;;;;5033700;28;20669;-41
2022/07/23 05:02:05;;;;;;;3.77;2.53;;;14.20;99.90;;;;;;5034676;28;20202;-44
2022/07/23 05:04:31;;;;;;;4.87;2.87;;;14.30;99.90;;;;;;5034288;28;20177;-43
2022/07/23 05:06:57;;;;;;;4.43;2.73;;;14.40;99.90;;;;;;5034610;28;20255;-42
2022/07/23 05:09:22;;;;;;;6.73;3.33;;;14.40;99.90;;;;;;5034502;28;20219;-43
2022/07/23 05:11:48;;;;;;;7.17;3.43;;;14.50;99.90;;;;;;5034443;28;20630;-42
2022/07/23 05:14:13;;;;;;;5.53;3.03;;;14.50;99.90;;;;;;5034197;28;20636;-43
2022/07/23 05:16:39;;;;;;;8.03;3.83;;;14.50;99.90;;;;;;5034215;28;20188;-39
2022/07/23 05:19:05;;;;;;;7.87;4.07;;;14.60;99.90;;;;;;5034505;28;20632;-39
2022/07/23 05:21:31;;;;;;;8.47;4.23;;;14.70;99.90;;;;;;5034344;28;20205;-43
2022/07/23 05:23:57;;;;;;;14.30;11.70;;;14.80;99.90;;;;;;5034126;28;20618;-42
2022/07/23 05:26:22;;;;;;;19.60;14.70;;;14.80;99.90;;;;;;5033874;28;20215;-43
2022/07/23 05:28:48;;;;;;;17.80;13.80;;;14.90;99.90;;;;;;5033949;28;20181;-43
2022/07/23 05:31:13;;;;;;;17.03;13.93;;;15.00;99.90;;;;;;5034006;28;20236;-44
2022/07/23 05:33:39;;;;;;;14.90;11.60;;;15.10;99.90;;;;;;5033777;28;20185;-43
2022/07/23 05:36:05;;;;;;;13.30;11.37;;;15.20;99.90;;;;;;5034072;28;20189;-44
2022/07/23 05:38:32;;;;;;;14.43;10.57;;;15.20;99.90;;;;;;5034229;28;20583;-43
2022/07/23 05:40:58;;;;;;;13.23;11.83;;;15.20;99.90;;;;;;5033726;28;20576;-44
2022/07/23 05:43:23;;;;;;;13.50;10.27;;;15.30;99.90;;;;;;5033756;28;20180;-37
2022/07/23 05:45:49;;;;;;;12.67;9.87;;;15.40;99.90;;;;;;5033767;28;20192;-36
2022/07/23 05:48:15;;;;;;;13.77;10.17;;;15.40;99.90;;;;;;5033789;28;20183;-38
2022/07/23 05:50:40;;;;;;;17.50;11.00;;;15.50;99.90;;;;;;5033439;28;20620;-39
2022/07/23 05:53:06;;;;;;;14.83;11.43;;;15.50;99.90;;;;;;5032204;28;20622;-38
2022/07/23 05:55:31;;;;;;;16.80;12.10;;;15.60;99.90;;;;;;5033474;28;20177;-40
2022/07/23 05:57:58;;;;;;;23.70;15.93;;;15.60;99.90;;;;;;5033385;28;20189;-39
2022/07/23 06:00:24;;;;;;;32.67;24.03;;;15.70;99.90;;;;;;5033695;28;20204;-45
2022/07/23 06:02:49;;;;;;;32.63;25.63;;;15.80;99.90;;;;;;5033879;28;20181;-42
2022/07/23 06:05:15;;;;;;;30.90;22.47;;;15.90;99.90;;;;;;5033715;28;20181;-43
2022/07/23 06:07:40;;;;;;;26.63;22.10;;;15.90;99.90;;;;;;5033277;28;20270;-43
2022/07/23 06:10:06;;;;;;;30.10;20.30;;;15.90;99.90;;;;;;5033194;28;20200;-43
2022/07/23 06:12:32;;;;;;;25.43;19.23;;;16.10;99.90;;;;;;5033353;28;20633;-44
2022/07/23 06:14:58;;;;;;;26.23;18.03;;;16.10;99.90;;;;;;5033528;28;20173;-41
2022/07/23 06:17:23;;;;;;;29.83;17.50;;;16.20;99.90;;;;;;5033473;28;20214;-41
2022/07/23 06:19:49;;;;;;;32.43;23.87;;;16.20;99.90;;;;;;5033437;28;20203;-41
2022/07/23 06:22:14;;;;;;;29.80;22.20;;;16.30;99.90;;;;;;5033094;28;20255;-43
2022/07/23 06:24:40;;;;;;;31.97;24.27;;;16.40;99.90;;;;;;5034917;28;20192;-43
2022/07/23 06:27:05;;;;;;;35.53;26.30;;;16.40;99.90;;;;;;5037195;28;20216;-42
2022/07/23 06:29:31;;;;;;;34.37;25.77;;;16.60;99.90;;;;;;5037399;28;20228;-42
2022/07/23 06:31:57;;;;;;;39.00;27.83;;;16.60;99.90;;;;;;5036006;28;20181;-42
2022/07/23 06:34:22;;;;;;;39.47;29.10;;;16.70;99.90;;;;;;5038061;28;20265;-41
2022/07/23 06:36:48;;;;;;;33.20;21.57;;;16.90;99.90;;;;;;5037394;28;20181;-39
2022/07/23 06:39:14;;;;;;;25.20;17.97;;;17.00;99.90;;;;;;5035797;28;20520;-44
2022/07/23 06:41:39;;;;;;;22.07;15.37;;;17.00;99.90;;;;;;5027977;28;20189;-43
2022/07/23 06:44:05;;;;;;;22.10;14.87;;;17.10;99.90;;;;;;5034604;28;20557;-43
2022/07/23 06:46:31;;;;;;;22.13;15.63;;;17.10;99.90;;;;;;5036715;28;20666;-45
2022/07/23 06:48:56;;;;;;;24.10;15.03;;;17.20;99.90;;;;;;5035929;28;20605;-41
2022/07/23 06:51:22;;;;;;;25.93;16.23;;;17.30;99.90;;;;;;5035762;28;20569;-45
2022/07/23 06:53:47;;;;;;;20.57;15.30;;;17.40;99.90;;;;;;5036077;28;20173;-43
2022/07/23 06:56:13;;;;;;;23.67;13.50;;;17.40;99.90;;;;;;5036085;28;20271;-43
2022/07/23 06:58:39;;;;;;;20.47;13.37;;;17.60;99.90;;;;;;5035856;28;20196;-42
2022/07/23 07:01:04;;;;;;;20.03;12.67;;;17.80;99.90;;;;;;5036252;28;20207;-40
2022/07/23 07:03:30;;;;;;;19.80;12.83;;;18.00;99.90;;;;;;5036604;28;20193;-39
2022/07/23 07:05:57;;;;;;;20.63;13.03;;;18.20;99.90;;;;;;5036859;28;20185;-40
2022/07/23 07:08:23;;;;;;;18.07;12.47;;;18.40;99.90;;;;;;5037082;28;20355;-41
2022/07/23 07:10:48;;;;;;;20.53;12.13;;;18.40;99.90;;;;;;5036932;28;20280;-42
2022/07/23 07:13:14;;;;;;;19.20;13.50;;;18.30;99.90;;;;;;5037015;28;20200;-43
2022/07/23 07:15:40;;;;;;;18.90;13.00;;;18.30;99.90;;;;;;5036468;28;20633;-42
2022/07/23 07:18:05;;;;;;;22.20;13.97;;;18.40;99.90;;;;;;5036672;28;20177;-43
2022/07/23 07:20:31;;;;;;;20.10;12.83;;;18.60;99.90;;;;;;5036610;28;20193;-42
2022/07/23 07:22:56;;;;;;;22.30;14.10;;;18.70;99.90;;;;;;5036966;28;20643;-37
2022/07/23 07:25:22;;;;;;;19.87;13.60;;;18.90;99.90;;;;;;5036497;28;20184;-38
2022/07/23 07:27:48;;;;;;;24.07;14.53;;;19.10;99.90;;;;;;5036270;28;20751;-42
2022/07/23 07:30:13;;;;;;;21.73;13.40;;;19.10;99.90;;;;;;5036225;28;20200;-40
2022/07/23 07:32:40;;;;;;;20.60;14.33;;;19.10;99.90;;;;;;5036655;28;20192;-40
2022/07/23 07:35:06;;;;;;;19.73;14.23;;;19.20;99.90;;;;;;5035729;28;20180;-37
2022/07/23 07:37:32;;;;;;;23.27;14.20;;;19.50;99.90;;;;;;5036329;28;20192;-39
2022/07/23 07:39:58;;;;;;;20.77;13.80;;;19.60;99.90;;;;;;5036474;28;20196;-39
2022/07/23 07:42:23;;;;;;;23.60;14.70;;;19.70;99.90;;;;;;5036118;28;20526;-42
2022/07/23 07:44:49;;;;;;;22.67;13.37;;;19.70;99.90;;;;;;5036170;28;20188;-39
2022/07/23 07:47:15;;;;;;;23.70;13.50;;;19.70;99.90;;;;;;5036218;28;20263;-45
2022/07/23 07:49:42;;;;;;;22.33;13.77;;;19.80;99.90;;;;;;5036295;28;20301;-43
2022/07/23 07:52:07;;;;;;;20.97;12.63;;;19.80;99.90;;;;;;5036392;28;20203;-43
2022/07/23 07:54:33;;;;;;;21.67;13.87;;;19.80;99.90;;;;;;5036432;28;20549;-43
2022/07/23 07:56:59;;;;;;;17.73;11.87;;;19.80;99.90;;;;;;5036500;28;20199;-44
2022/07/23 07:59:25;;;;;;;15.87;11.50;;;19.80;99.90;;;;;;5036971;28;20177;-40
2022/07/23 08:01:51;;;;;;;17.40;12.13;;;20.00;99.90;;;;;;5034782;28;20649;-37
2022/07/23 08:04:17;;;;;;;13.33;9.60;;;20.10;99.90;;;;;;5036354;28;20185;-38
2022/07/23 08:06:43;;;;;;;17.70;9.00;;;20.20;99.90;;;;;;5036360;28;20331;-39
2022/07/23 08:09:08;;;;;;;15.17;9.07;;;20.20;99.90;;;;;;5035901;28;20177;-43
2022/07/23 08:11:34;;;;;;;14.30;9.27;;;20.20;99.90;;;;;;5035899;28;20219;-45
2022/07/23 08:14:00;;;;;;;11.67;8.57;;;20.30;99.90;;;;;;5035789;28;20169;-38
2022/07/23 08:16:26;;;;;;;14.60;9.50;;;20.30;99.90;;;;;;5035602;28;20695;-42
2022/07/23 08:18:51;;;;;;;16.07;10.43;;;20.30;99.90;;;;;;5035748;28;20645;-41
2022/07/23 08:21:17;;;;;;;15.73;9.17;;;20.40;99.90;;;;;;5036044;28;20197;-40
2022/07/23 08:23:44;;;;;;;12.77;7.70;;;20.50;99.90;;;;;;5035964;28;20719;-43
2022/07/23 08:26:09;;;;;;;13.53;7.90;;;20.50;99.90;;;;;;5035697;28;20267;-45
2022/07/23 08:28:35;;;;;;;13.50;7.53;;;20.60;99.90;;;;;;5036096;28;20276;-44
2022/07/23 08:31:01;;;;;;;12.43;7.63;;;20.70;99.90;;;;;;5036197;28;20201;-44
2022/07/23 08:33:27;;;;;;;9.47;6.77;;;20.70;99.90;;;;;;5035653;28;20173;-44
2022/07/23 08:35:52;;;;;;;10.90;6.97;;;20.80;99.90;;;;;;5035804;28;20185;-43
2022/07/23 08:38:22;;;;;;;11.77;7.20;;;20.90;99.90;;;;;;5035911;28;20604;-43
2022/07/23 08:40:53;;;;;;;8.97;6.73;;;21.10;99.90;;;;;;5035215;28;20201;-44
2022/07/23 08:43:22;;;;;;;8.70;7.27;;;21.30;99.90;;;;;;5035702;28;20536;-43
2022/07/23 08:45:49;;;;;;;15.67;6.87;;;21.50;99.90;;;;;;5034266;28;20262;-44
2022/07/23 08:48:18;;;;;;;10.53;6.57;;;21.50;99.90;;;;;;5034988;28;20217;-43
2022/07/23 08:50:47;;;;;;;10.10;7.50;;;21.60;99.90;;;;;;5034275;28;20223;-46
2022/07/23 08:53:14;;;;;;;10.03;7.30;;;21.80;99.90;;;;;;5036224;28;20311;-44
2022/07/23 08:55:42;;;;;;;8.37;6.53;;;21.90;99.90;;;;;;5035722;28;20547;-45
2022/07/23 08:58:08;;;;;;;12.27;7.03;;;21.90;99.90;;;;;;5036248;28;20267;-43
2022/07/23 09:00:34;;;;;;;8.40;6.87;;;21.90;99.90;;;;;;5035331;28;20243;-45
2022/07/23 09:03:00;;;;;;;12.57;7.17;;;21.80;99.90;;;;;;5035108;28;20211;-44
2022/07/23 09:05:26;;;;;;;8.63;6.03;;;21.90;99.90;;;;;;5035015;28;20188;-45
2022/07/23 09:08:06;;;;;;;10.40;7.07;;;22.10;99.90;;;;;;5034728;28;20209;-46
2022/07/23 09:10:48;;;;;;;11.00;6.60;;;22.30;99.90;;;;;;5034966;28;20620;-44
2022/07/23 09:13:27;;;;;;;6.90;6.20;;;22.20;99.90;;;;;;5035588;28;20169;-43
2022/07/23 09:15:55;;;;;;;10.67;6.50;;;22.10;99.90;;;;;;5033758;28;20625;-44
2022/07/23 09:18:54;;;;;;;10.07;5.80;;;22.10;99.90;;;;;;5035752;28;20655;-46
2022/07/23 09:21:23;;;;;;;7.73;6.17;;;22.10;99.90;;;;;;5035290;28;20201;-45
2022/07/23 09:24:09;;;;;;;9.97;6.13;;;22.40;99.90;;;;;;5034696;28;20283;-46
2022/07/23 09:26:46;;;;;;;10.00;6.33;;;22.40;99.90;;;;;;5035077;28;20208;-44
2022/07/23 09:29:18;;;;;;;8.77;5.07;;;22.30;99.90;;;;;;5034912;28;20230;-44
2022/07/23 09:31:49;;;;;;;7.63;6.17;;;22.20;99.90;;;;;;5034733;28;20161;-45
2022/07/23 09:34:38;;;;;;;9.47;5.53;;;22.50;99.90;;;;;;5035011;28;20235;-45
2022/07/23 09:37:13;;;;;;;7.37;5.23;;;22.50;99.90;;;;;;5035211;28;20189;-43
2022/07/23 09:39:39;;;;;;;7.83;5.50;;;22.40;99.90;;;;;;5035940;28;20567;-45
2022/07/23 09:42:19;;;;;;;9.43;5.90;;;22.60;99.90;;;;;;5035147;28;20205;-45
2022/07/23 09:44:49;;;;;;;7.70;5.33;;;22.90;99.90;;;;;;5036141;28;20200;-45
2022/07/23 09:47:16;;;;;;;6.03;4.87;;;23.20;99.90;;;;;;5035351;28;20196;-44
2022/07/23 09:50:01;;;;;;;7.47;5.67;;;23.30;99.90;;;;;;5034137;28;20271;-43
2022/07/23 09:52:43;;;;;;;7.77;5.53;;;22.90;99.90;;;;;;5034008;28;20617;-44
2022/07/23 09:55:09;;;;;;;6.73;5.20;;;22.80;99.90;;;;;;5035445;28;20165;-46
2022/07/23 09:57:35;;;;;;;8.03;5.50;;;22.90;99.90;;;;;;5032433;28;20195;-44
2022/07/23 10:00:04;;;;;;;8.10;5.60;;;23.10;99.90;;;;;;5033860;28;20604;-40
2022/07/23 10:02:32;;;;;;;7.87;5.83;;;23.10;99.90;;;;;;5033639;28;20196;-40
2022/07/23 10:04:58;;;;;;;8.07;5.33;;;23.10;99.90;;;;;;5033507;28;20189;-39
2022/07/23 10:07:26;;;;;;;5.33;4.40;;;23.00;99.90;;;;;;5033325;28;20572;-41
2022/07/23 10:09:52;;;;;;;5.93;4.77;;;23.00;99.90;;;;;;5032094;28;20204;-38
2022/07/23 10:14:45;;;;;;;9.47;5.17;;;23.40;99.90;;;;;;5036742;28;20189;-42
2022/07/23 10:17:11;;;;;;;6.87;4.47;;;23.60;99.90;;;;;;5034961;28;20272;-41
2022/07/23 10:19:38;;;;;;;6.63;4.50;;;23.90;99.90;;;;;;5033731;28;20239;-40
2022/07/23 10:22:13;;;;;;;3.90;3.50;;;24.30;99.90;;;;;;5033963;28;20196;-42
2022/07/23 10:25:00;;;;;;;6.33;3.90;;;24.50;99.90;;;;;;5035335;28;20207;-43
2022/07/23 10:27:43;;;;;;;9.33;4.53;;;24.60;99.90;;;;;;5036370;28;20208;-41
2022/07/23 10:30:30;;;;;;;7.80;4.37;;;24.50;99.90;;;;;;5036335;28;20208;-40
2022/07/23 10:33:29;;;;;;;7.40;4.03;;;24.40;99.90;;;;;;5034192;28;20181;-41
2022/07/23 10:36:14;;;;;;;4.83;3.70;;;24.60;99.90;;;;;;5034311;28;20300;-40
2022/07/23 10:38:55;;;;;;;5.10;3.80;;;24.80;99.90;;;;;;5034117;28;20548;-40
2022/07/23 10:41:35;;;;;;;7.03;3.77;;;24.80;99.90;;;;;;5033543;28;20662;-40
2022/07/23 10:44:12;;;;;;;4.33;3.47;;;24.50;99.90;;;;;;5034416;28;20180;-40
2022/07/23 10:49:35;;;;;;;5.70;3.70;;;24.50;99.90;;;;;;5033707;28;20208;-41
2022/07/23 10:52:22;;;;;;;6.37;3.80;;;24.40;99.90;;;;;;5033464;28;20181;-41
2022/07/23 10:54:52;;;;;;;5.23;3.57;;;24.50;99.90;;;;;;5033232;28;20181;-44
2022/07/23 10:57:20;;;;;;;5.40;3.17;;;24.70;99.90;;;;;;5033409;28;20231;-43
2022/07/23 11:00:01;;;;;;;2.70;2.50;;;25.00;99.90;;;;;;5032349;28;20205;-42
2022/07/23 11:02:29;;;;;;;4.85;2.65;;;25.20;99.90;;;;;;5033113;28;20188;-43
2022/07/23 11:05:00;;;;;;;3.27;2.30;;;25.40;99.90;;;;;;5033168;28;20220;-42
2022/07/23 11:07:26;;;;;;;4.10;2.33;;;25.30;99.90;;;;;;5032775;28;20562;-41
2022/07/23 11:09:53;;;;;;;3.23;2.00;;;25.30;99.90;;;;;;5033206;28;20223;-43
2022/07/23 11:12:28;;;;;;;4.27;2.13;;;25.30;99.90;;;;;;5036384;28;20192;-43
2022/07/23 11:15:02;;;;;;;4.32;2.35;;;25.30;99.90;;;;;;5036413;28;20188;-44
2022/07/23 11:17:29;;;;;;;2.75;2.15;;;25.20;99.90;;;;;;5036404;28;20191;-43
2022/07/23 11:20:09;;;;;;;5.90;2.20;;;25.40;99.90;;;;;;5036262;28;20295;-43
2022/07/23 11:22:36;;;;;;;3.08;2.25;;;25.50;99.90;;;;;;5034969;28;20215;-43
2022/07/23 11:25:02;;;;;;;4.20;2.00;;;25.50;99.90;;;;;;5036933;28;20538;-41
2022/07/23 11:27:45;;;;;;;4.30;2.40;;;25.40;99.90;;;;;;5036300;28;20732;-41
2022/07/23 11:30:26;;;;;;;3.55;1.90;;;25.50;99.90;;;;;;5036749;28;20681;-41
2022/07/23 11:32:53;;;;;;;2.20;2.00;;;25.80;99.90;;;;;;5036696;28;20625;-39
2022/07/23 11:35:27;;;;;;;2.30;1.70;;;26.10;99.90;;;;;;5036241;28;20176;-40
2022/07/23 11:38:02;;;;;;;3.25;1.98;;;26.30;99.90;;;;;;5050141;23;20626;-40
2022/07/23 11:40:28;;;;;;;3.42;1.90;;;26.20;99.90;;;;;;5055915;28;20203;-40
2022/07/23 11:43:03;;;;;;;2.05;1.50;;;26.10;99.90;;;;;;5056081;28;20177;-40
2022/07/23 11:45:43;;;;;;;1.55;1.45;;;26.10;99.90;;;;;;5055981;28;20172;-39
2022/07/23 11:48:28;;;;;;;3.67;1.90;;;26.30;99.90;;;;;;5055928;28;20203;-41
2022/07/23 11:50:55;;;;;;;1.95;1.70;;;26.30;99.90;;;;;;5055669;28;20188;-39
2022/07/23 11:53:33;;;;;;;1.60;1.50;;;26.40;99.90;;;;;;5055879;28;20172;-39
2022/07/23 11:56:09;;;;;;;4.40;1.98;;;26.50;99.90;;;;;;5054899;28;20172;-41
2022/07/23 11:58:36;;;;;;;3.00;1.73;;;26.10;99.90;;;;;;5055838;28;20180;-41
2022/07/23 12:01:01;;;;;;;2.50;1.50;;;25.90;99.90;;;;;;5055376;28;20277;-39
2022/07/23 12:03:27;;;;;;;2.10;1.80;;;25.90;99.90;;;;;;5055448;28;20200;-40
2022/07/23 12:05:57;;;;;;;1.88;1.38;;;26.00;99.90;;;;;;5055454;28;20632;-39
2022/07/23 12:08:23;;;;;;;1.83;1.70;;;26.00;99.90;;;;;;5055845;28;20274;-43
2022/07/23 12:10:49;;;;;;;1.52;1.42;;;26.20;99.90;;;;;;5055216;28;20192;-40
2022/07/23 12:13:18;;;;;;;2.38;1.60;;;26.60;99.90;;;;;;5055281;28;20180;-39
2022/07/23 12:15:47;;;;;;;1.77;1.52;;;26.90;99.90;;;;;;5055365;28;20542;-40
2022/07/23 12:18:19;;;;;;;1.73;1.63;;;27.30;99.90;;;;;;5055191;28;20207;-41
2022/07/23 12:20:50;;;;;;;3.30;2.05;;;27.50;99.90;;;;;;5055642;28;20230;-41
2022/07/23 12:23:18;;;;;;;2.88;1.90;;;27.60;99.90;;;;;;5054175;28;20171;-37
2022/07/23 12:25:45;;;;;;;4.15;1.90;;;27.40;99.90;;;;;;5055074;28;20179;-39
2022/07/23 12:28:17;;;;;;;2.92;1.70;;;27.20;99.90;;;;;;5054875;28;20235;-41
2022/07/23 12:30:53;;;;;;;4.25;1.80;;;26.90;99.90;;;;;;5054963;28;20597;-39
2022/07/23 12:33:26;;;;;;;2.22;1.67;;;26.70;99.90;;;;;;5054926;28;20258;-39
2022/07/23 12:35:54;;;;;;;3.17;1.83;;;26.60;99.90;;;;;;5055384;28;20506;-40
2022/07/23 12:38:22;;;;;;;2.08;1.80;;;26.60;99.90;;;;;;5054621;28;20192;-40
2022/07/23 12:40:53;;;;;;;1.73;1.60;;;26.60;99.90;;;;;;5055235;28;20712;-40
2022/07/23 12:43:30;;;;;;;3.13;1.98;;;26.60;99.90;;;;;;5054969;28;20229;-42
2022/07/23 12:46:08;;;;;;;6.07;1.85;;;26.50;99.90;;;;;;5053382;28;20172;-42
2022/07/23 12:48:49;;;;;;;1.70;1.50;;;26.30;99.90;;;;;;5054633;28;20184;-40
2022/07/23 12:51:22;;;;;;;5.35;1.85;;;26.40;99.90;;;;;;5055829;28;20196;-41
2022/07/23 12:53:50;;;;;;;3.17;1.80;;;26.40;99.90;;;;;;5054677;28;20157;-40